createdAt,value
2018-04-15T00:00:30.481Z,70.10
2018-04-15T00:01:35.997Z,70.40
2018-04-15T00:02:41.507Z,67.90
2018-04-15T00:03:47.017Z,70.50
2018-04-15T00:04:52.534Z,71.90
2018-04-15T00:05:58.048Z,71.00
2018-04-15T00:07:03.566Z,68.30
2018-04-15T00:08:09.079Z,71.00
2018-04-15T00:09:14.600Z,73.30
2018-04-15T00:10:20.102Z,69.80
2018-04-15T00:11:25.618Z,69.80
2018-04-15T00:12:31.144Z,70.50
2018-04-15T00:13:36.646Z,70.40
2018-04-15T00:14:42.163Z,73.00
2018-04-15T00:15:47.675Z,70.80
2018-04-15T00:16:53.189Z,69.70
2018-04-15T00:17:58.706Z,71.00
2018-04-15T00:19:04.217Z,74.50
2018-04-15T00:20:09.731Z,73.60
2018-04-15T00:21:15.243Z,72.50
2018-04-15T00:22:20.772Z,73.90
2018-04-15T00:23:26.295Z,80.60
2018-04-15T00:24:31.794Z,76.60
2018-04-15T00:25:37.312Z,79.30
2018-04-15T00:26:42.818Z,82.00
2018-04-15T00:27:48.449Z,77.40
2018-04-15T00:28:53.853Z,76.40
2018-04-15T00:29:59.362Z,80.00
2018-04-15T00:31:04.893Z,79.60
2018-04-15T00:32:10.387Z,82.80
2018-04-15T00:33:15.911Z,87.00
2018-04-15T00:34:21.416Z,85.00
2018-04-15T00:35:26.929Z,82.10
2018-04-15T00:36:32.450Z,85.60
2018-04-15T00:37:37.963Z,83.40
2018-04-15T00:38:43.470Z,82.60
2018-04-15T00:39:48.986Z,85.10
2018-04-15T00:40:54.515Z,84.70
2018-04-15T00:42:00.022Z,83.60
2018-04-15T00:43:05.530Z,88.80
2018-04-15T00:44:11.038Z,88.10
2018-04-15T00:45:16.554Z,88.20
2018-04-15T00:46:22.070Z,89.30
2018-04-15T00:47:27.588Z,93.90
2018-04-15T00:48:33.097Z,92.20
2018-04-15T00:49:38.620Z,89.80
2018-04-15T00:50:44.123Z,87.60
2018-04-15T00:51:49.649Z,86.70
2018-04-15T00:52:55.158Z,88.10
2018-04-15T00:54:00.668Z,91.90
2018-04-15T00:55:06.182Z,90.80
2018-04-15T00:56:11.697Z,90.50
2018-04-15T00:57:17.207Z,93.10
2018-04-15T00:58:22.724Z,89.90
2018-04-15T00:59:28.235Z,88.60
2018-04-15T01:00:33.763Z,94.30
2018-04-15T01:01:39.266Z,87.60
2018-04-15T01:02:44.778Z,91.80
2018-04-15T01:03:50.327Z,88.50
2018-04-15T01:04:55.808Z,91.40
2018-04-15T01:06:01.322Z,94.30
2018-04-15T01:07:06.837Z,94.30
2018-04-15T01:08:12.365Z,92.20
2018-04-15T01:09:17.865Z,98.60
2018-04-15T01:10:23.378Z,95.10
2018-04-15T01:11:28.891Z,96.70
2018-04-15T01:12:34.408Z,93.20
2018-04-15T01:13:39.919Z,96.80
2018-04-15T01:14:45.431Z,97.00
2018-04-15T01:15:50.949Z,95.50
2018-04-15T01:16:56.463Z,92.90
2018-04-15T01:18:01.981Z,96.60
2018-04-15T01:19:07.493Z,95.50
2018-04-15T01:20:13.005Z,93.30
2018-04-15T01:21:18.522Z,95.20
2018-04-15T01:22:24.038Z,96.70
2018-04-15T01:23:29.555Z,98.20
2018-04-15T01:24:35.059Z,92.80
2018-04-15T01:25:40.575Z,96.90
2018-04-15T01:26:46.087Z,89.30
2018-04-15T01:27:51.602Z,102.10
2018-04-15T01:28:57.117Z,90.20
2018-04-15T01:30:02.640Z,95.70
2018-04-15T01:31:08.145Z,97.00
2018-04-15T01:32:13.657Z,94.70
2018-04-15T01:33:19.192Z,100.30
2018-04-15T01:34:24.689Z,99.30
2018-04-15T01:35:30.199Z,101.20
2018-04-15T01:36:35.712Z,103.20
2018-04-15T01:37:41.232Z,97.90
2018-04-15T01:38:46.804Z,99.10
2018-04-15T01:39:52.265Z,102.80
2018-04-15T01:40:57.769Z,97.80
2018-04-15T01:42:03.284Z,96.40
2018-04-15T01:43:08.805Z,95.60
2018-04-15T01:44:14.310Z,97.30
2018-04-15T01:45:19.827Z,98.40
2018-04-15T01:46:25.338Z,97.40
2018-04-15T01:47:30.854Z,96.10
2018-04-15T01:48:36.369Z,96.20
2018-04-15T01:49:41.883Z,94.00
2018-04-15T01:50:47.397Z,96.10
2018-04-15T01:51:52.907Z,100.60
2018-04-15T01:52:58.423Z,100.20
2018-04-15T01:54:03.939Z,101.10
2018-04-15T01:55:09.451Z,98.70
2018-04-15T01:56:14.965Z,96.80
2018-04-15T01:57:20.483Z,97.00
2018-04-15T01:58:25.990Z,92.70
2018-04-15T01:59:31.503Z,95.60
2018-04-15T02:00:37.023Z,100.60
2018-04-15T02:01:42.543Z,100.70
2018-04-15T02:02:48.053Z,95.90
2018-04-15T02:03:53.560Z,101.50
2018-04-15T02:04:59.077Z,89.30
2018-04-15T02:06:04.591Z,91.00
2018-04-15T02:07:10.107Z,93.10
2018-04-15T02:08:15.618Z,92.40
2018-04-15T02:09:21.131Z,92.60
2018-04-15T02:10:26.649Z,102.70
2018-04-15T02:11:32.176Z,103.70
2018-04-15T02:12:37.677Z,98.70
2018-04-15T02:13:43.199Z,103.80
2018-04-15T02:14:48.705Z,100.80
2018-04-15T02:15:54.219Z,104.50
2018-04-15T02:16:59.728Z,109.60
2018-04-15T02:18:05.245Z,104.30
2018-04-15T02:19:10.761Z,104.80
2018-04-15T02:20:16.274Z,110.90
2018-04-15T02:21:21.784Z,103.50
2018-04-15T02:22:27.301Z,104.90
2018-04-15T02:23:32.841Z,97.40
2018-04-15T02:24:38.327Z,98.10
2018-04-15T02:25:43.842Z,102.30
2018-04-15T02:26:49.366Z,95.90
2018-04-15T02:27:54.869Z,99.20
2018-04-15T02:29:00.389Z,105.50
2018-04-15T02:30:05.896Z,102.90
2018-04-15T02:31:11.411Z,104.20
2018-04-15T02:32:16.928Z,107.40
2018-04-15T02:33:22.441Z,103.50
2018-04-15T02:34:27.958Z,98.20
2018-04-15T02:35:33.468Z,109.70
2018-04-15T02:36:38.981Z,106.50
2018-04-15T02:37:44.494Z,113.80
2018-04-15T02:38:50.015Z,108.70
2018-04-15T02:39:55.531Z,107.30
2018-04-15T02:41:01.039Z,105.90
2018-04-15T02:42:06.562Z,106.20
2018-04-15T02:43:12.068Z,112.90
2018-04-15T02:44:17.589Z,108.30
2018-04-15T02:45:23.097Z,105.20
2018-04-15T02:46:28.614Z,112.90
2018-04-15T02:47:34.214Z,108.00
2018-04-15T02:48:39.637Z,104.20
2018-04-15T02:49:45.168Z,106.10
2018-04-15T02:50:50.664Z,111.40
2018-04-15T02:51:56.180Z,112.10
2018-04-15T02:53:01.700Z,114.50
2018-04-15T02:54:07.215Z,117.60
2018-04-15T02:55:12.719Z,115.10
2018-04-15T02:56:18.240Z,111.20
2018-04-15T02:57:23.751Z,115.40
2018-04-15T02:58:29.260Z,115.00
2018-04-15T02:59:34.781Z,116.30
2018-04-15T03:00:40.335Z,117.30
2018-04-15T03:01:45.808Z,109.80
2018-04-15T03:02:51.338Z,115.40
2018-04-15T03:03:56.837Z,119.90
2018-04-15T03:05:02.354Z,114.80
2018-04-15T03:06:07.861Z,118.50
2018-04-15T03:07:13.387Z,124.80
2018-04-15T03:08:18.895Z,121.20
2018-04-15T03:09:24.405Z,122.80
2018-04-15T03:10:29.920Z,121.00
2018-04-15T03:11:35.428Z,125.90
2018-04-15T03:12:40.946Z,130.90
2018-04-15T03:13:46.460Z,112.70
2018-04-15T03:14:51.968Z,121.00
2018-04-15T03:15:57.486Z,126.70
2018-04-15T03:17:02.997Z,122.70
2018-04-15T03:18:08.509Z,121.10
2018-04-15T03:19:14.025Z,125.60
2018-04-15T03:20:19.539Z,137.20
2018-04-15T03:21:25.058Z,128.60
2018-04-15T03:22:30.567Z,121.70
2018-04-15T03:23:36.080Z,125.90
2018-04-15T03:24:41.591Z,114.50
2018-04-15T03:25:47.108Z,128.60
2018-04-15T03:26:52.629Z,135.70
2018-04-15T03:27:58.137Z,135.20
2018-04-15T03:29:03.654Z,135.20
2018-04-15T03:30:09.179Z,129.50
2018-04-15T03:31:14.675Z,124.00
2018-04-15T03:32:20.190Z,128.80
2018-04-15T03:33:25.712Z,112.50
2018-04-15T03:34:31.218Z,120.30
2018-04-15T03:35:36.741Z,113.70
2018-04-15T03:36:42.249Z,115.60
2018-04-15T03:37:47.762Z,115.50
2018-04-15T03:38:53.277Z,108.40
2018-04-15T03:39:58.787Z,115.40
2018-04-15T03:41:04.301Z,122.30
2018-04-15T03:42:09.813Z,108.10
2018-04-15T03:43:15.339Z,109.30
2018-04-15T03:44:20.849Z,121.80
2018-04-15T03:45:26.357Z,114.20
2018-04-15T03:46:31.871Z,120.30
2018-04-15T03:47:37.388Z,109.10
2018-04-15T03:48:42.898Z,112.90
2018-04-15T03:49:48.415Z,104.00
2018-04-15T03:50:53.928Z,98.00
2018-04-15T03:51:59.438Z,97.90
2018-04-15T03:53:04.951Z,98.30
2018-04-15T03:54:10.477Z,105.80
2018-04-15T03:55:15.983Z,119.40
2018-04-15T03:56:21.494Z,107.20
2018-04-15T03:57:27.010Z,110.20
2018-04-15T03:58:32.528Z,106.20
2018-04-15T03:59:38.041Z,100.80
2018-04-15T04:00:43.553Z,89.70
2018-04-15T04:01:49.069Z,95.00
2018-04-15T04:02:54.690Z,91.10
2018-04-15T04:04:00.101Z,89.60
2018-04-15T04:05:05.609Z,89.10
2018-04-15T04:06:11.123Z,88.00
2018-04-15T04:07:16.636Z,80.70
2018-04-15T04:08:22.148Z,96.40
2018-04-15T04:09:27.671Z,82.60
2018-04-15T04:10:33.181Z,84.90
2018-04-15T04:11:38.690Z,93.40
2018-04-15T04:12:44.204Z,94.00
2018-04-15T04:13:49.716Z,75.20
2018-04-15T04:14:55.236Z,71.70
2018-04-15T04:16:00.744Z,85.00
2018-04-15T04:17:06.259Z,80.80
2018-04-15T04:18:11.770Z,95.00
2018-04-15T04:19:17.293Z,97.00
2018-04-15T04:20:22.855Z,88.70
2018-04-15T04:21:28.319Z,93.40
2018-04-15T04:22:33.829Z,95.60
2018-04-15T04:23:39.342Z,97.20
2018-04-15T04:24:44.861Z,95.10
2018-04-15T04:25:50.368Z,92.30
2018-04-15T04:26:55.885Z,97.60
2018-04-15T04:28:01.403Z,92.20
2018-04-15T04:29:06.910Z,88.30
2018-04-15T04:30:12.424Z,91.30
2018-04-15T04:31:17.949Z,78.50
2018-04-15T04:32:23.457Z,85.50
2018-04-15T04:33:28.971Z,83.90
2018-04-15T04:34:34.478Z,88.10
2018-04-15T04:35:40.000Z,81.00
2018-04-15T04:36:45.509Z,83.30
2018-04-15T04:37:51.089Z,96.00
2018-04-15T04:38:56.541Z,91.10
2018-04-15T04:40:02.057Z,90.20
2018-04-15T04:41:07.565Z,92.60
2018-04-15T04:42:13.079Z,94.10
2018-04-15T04:43:18.597Z,96.50
2018-04-15T04:44:24.114Z,93.20
2018-04-15T04:45:29.615Z,92.90
2018-04-15T04:46:35.137Z,87.50
2018-04-15T04:47:40.647Z,84.50
2018-04-15T04:48:46.161Z,87.00
2018-04-15T04:49:51.672Z,91.70
2018-04-15T04:50:57.190Z,82.10
2018-04-15T04:52:02.704Z,83.90
2018-04-15T04:53:08.215Z,73.20
2018-04-15T04:54:13.731Z,87.60
2018-04-15T04:55:19.241Z,64.90
2018-04-15T04:56:24.762Z,74.80
2018-04-15T04:57:30.271Z,58.40
2018-04-15T04:58:35.781Z,62.40
2018-04-15T04:59:41.297Z,69.60
2018-04-15T05:00:46.810Z,70.30
2018-04-15T05:01:52.330Z,62.10
2018-04-15T05:02:57.839Z,81.70
2018-04-15T05:04:03.361Z,77.20
2018-04-15T05:05:08.871Z,82.60
2018-04-15T05:06:14.385Z,83.20
2018-04-15T05:07:19.899Z,70.70
2018-04-15T05:08:25.431Z,67.40
2018-04-15T05:09:30.919Z,66.60
2018-04-15T05:10:36.436Z,73.80
2018-04-15T05:11:41.948Z,80.10
2018-04-15T05:12:47.468Z,78.60
2018-04-15T05:13:52.973Z,63.00
2018-04-15T05:14:58.495Z,60.70
2018-04-15T05:16:04.007Z,68.80
2018-04-15T05:17:09.571Z,62.40
2018-04-15T05:18:15.030Z,68.70
2018-04-15T05:19:20.543Z,57.80
2018-04-15T05:20:26.058Z,63.00
2018-04-15T05:21:31.572Z,51.90
2018-04-15T05:22:37.085Z,58.90
2018-04-15T05:23:42.598Z,63.90
2018-04-15T05:24:48.117Z,62.40
2018-04-15T05:25:53.629Z,65.00
2018-04-15T05:26:59.139Z,72.30
2018-04-15T05:28:04.661Z,56.10
2018-04-15T05:29:10.169Z,64.60
2018-04-15T05:30:15.688Z,61.10
2018-04-15T05:31:21.199Z,70.90
2018-04-15T05:32:26.708Z,65.60
2018-04-15T05:33:32.232Z,70.80
2018-04-15T05:34:37.740Z,55.60
2018-04-15T05:35:43.252Z,43.50
2018-04-15T05:36:48.773Z,63.20
2018-04-15T05:37:54.279Z,65.90
2018-04-15T05:38:59.797Z,42.40
2018-04-15T05:40:05.310Z,43.20
2018-04-15T05:41:10.820Z,33.80
2018-04-15T05:42:16.333Z,37.00
2018-04-15T05:43:21.851Z,43.30
2018-04-15T05:44:27.357Z,30.70
2018-04-15T05:45:32.927Z,32.60
2018-04-15T05:46:38.389Z,32.40
2018-04-15T05:47:43.903Z,36.80
2018-04-15T05:48:49.455Z,33.00
2018-04-15T05:49:54.929Z,28.60
2018-04-15T05:51:00.449Z,28.50
2018-04-15T05:52:05.960Z,28.20
2018-04-15T05:53:11.473Z,29.00
2018-04-15T05:54:16.985Z,23.30
2018-04-15T05:55:22.505Z,25.10
2018-04-15T05:56:28.017Z,25.90
2018-04-15T05:57:33.529Z,18.80
2018-04-15T05:58:39.039Z,17.70
2018-04-15T05:59:44.565Z,21.50
2018-04-15T06:00:50.068Z,20.10
2018-04-15T06:01:55.583Z,20.00
2018-04-15T06:03:01.102Z,22.60
2018-04-15T06:04:06.608Z,28.40
2018-04-15T06:05:12.142Z,32.50
2018-04-15T06:06:17.636Z,29.10
2018-04-15T06:07:23.156Z,36.20
2018-04-15T06:08:28.668Z,32.80
2018-04-15T06:09:34.181Z,40.80
2018-04-15T06:10:39.694Z,37.70
2018-04-15T06:11:45.206Z,39.90
2018-04-15T06:12:50.720Z,33.70
2018-04-15T06:13:56.270Z,40.50
2018-04-15T06:15:01.751Z,42.40
2018-04-15T06:16:07.267Z,35.20
2018-04-15T06:17:12.774Z,42.60
2018-04-15T06:18:18.292Z,47.60
2018-04-15T06:19:23.808Z,29.50
2018-04-15T06:20:29.319Z,28.50
2018-04-15T06:21:34.834Z,31.40
2018-04-15T06:22:40.347Z,25.20
2018-04-15T06:23:45.862Z,27.10
2018-04-15T06:24:51.385Z,23.60
2018-04-15T06:25:56.893Z,27.40
2018-04-15T06:27:02.411Z,25.10
2018-04-15T06:28:07.915Z,26.10
2018-04-15T06:29:13.433Z,22.60
2018-04-15T06:30:18.947Z,18.80
2018-04-15T06:31:24.460Z,22.00
2018-04-15T06:32:30.028Z,21.80
2018-04-15T06:33:35.482Z,29.00
2018-04-15T06:34:40.999Z,23.60
2018-04-15T06:35:46.512Z,24.30
2018-04-15T06:36:52.082Z,23.60
2018-04-15T06:37:57.541Z,22.40
2018-04-15T06:39:03.053Z,28.70
2018-04-15T06:40:08.569Z,24.90
2018-04-15T06:41:14.107Z,27.40
2018-04-15T06:42:19.598Z,21.50
2018-04-15T06:43:25.110Z,23.30
2018-04-15T06:44:30.623Z,24.70
2018-04-15T06:45:36.139Z,20.30
2018-04-15T06:46:41.654Z,23.80
2018-04-15T06:47:47.174Z,25.40
2018-04-15T06:48:52.687Z,25.10
2018-04-15T06:49:58.192Z,38.80
2018-04-15T06:51:03.709Z,30.70
2018-04-15T06:52:09.232Z,26.40
2018-04-15T06:53:14.736Z,23.70
2018-04-15T06:54:20.248Z,31.30
2018-04-15T06:55:25.765Z,25.50
2018-04-15T06:56:31.278Z,32.90
2018-04-15T06:57:36.808Z,32.80
2018-04-15T06:58:42.305Z,23.30
2018-04-15T06:59:47.820Z,24.60
2018-04-15T07:00:53.335Z,20.90
2018-04-15T07:01:58.847Z,31.60
2018-04-15T07:03:04.361Z,21.50
2018-04-15T07:04:09.877Z,26.30
2018-04-15T07:05:15.388Z,22.10
2018-04-15T07:06:20.909Z,25.10
2018-04-15T07:07:26.420Z,28.40
2018-04-15T07:08:31.938Z,21.80
2018-04-15T07:09:37.469Z,24.30
2018-04-15T07:10:42.968Z,25.10
2018-04-15T07:11:48.493Z,21.10
2018-04-15T07:12:53.988Z,22.40
2018-04-15T07:13:59.518Z,22.70
2018-04-15T07:15:05.026Z,22.30
2018-04-15T07:16:10.532Z,18.40
2018-04-15T07:17:16.102Z,23.10
2018-04-15T07:18:21.566Z,18.40
2018-04-15T07:19:27.076Z,17.90
2018-04-15T07:20:32.595Z,15.80
2018-04-15T07:21:38.130Z,23.60
2018-04-15T07:22:43.625Z,20.40
2018-04-15T07:23:49.137Z,23.70
2018-04-15T07:24:54.667Z,20.80
2018-04-15T07:26:00.169Z,18.40
2018-04-15T07:27:05.679Z,20.40
2018-04-15T07:28:11.203Z,15.10
2018-04-15T07:29:16.707Z,14.40
2018-04-15T07:30:22.237Z,16.60
2018-04-15T07:31:27.738Z,14.20
2018-04-15T07:32:33.259Z,15.20
2018-04-15T07:33:38.773Z,15.40
2018-04-15T07:34:44.287Z,16.80
2018-04-15T07:35:49.799Z,17.20
2018-04-15T07:36:55.320Z,14.40
2018-04-15T07:38:00.826Z,16.70
2018-04-15T07:39:06.339Z,16.90
2018-04-15T07:40:11.866Z,15.60
2018-04-15T07:41:17.373Z,16.80
2018-04-15T07:42:22.886Z,16.50
2018-04-15T07:43:28.399Z,15.10
2018-04-15T07:44:33.919Z,14.80
2018-04-15T07:45:39.435Z,16.00
2018-04-15T07:46:44.944Z,15.90
2018-04-15T07:47:50.455Z,15.30
2018-04-15T07:48:55.975Z,23.70
2018-04-15T07:50:01.489Z,15.20
2018-04-15T07:51:07.000Z,17.10
2018-04-15T07:52:12.518Z,15.50
2018-04-15T07:53:18.032Z,14.50
2018-04-15T07:54:23.554Z,11.10
2018-04-15T07:55:29.060Z,12.90
2018-04-15T07:56:34.587Z,11.80
2018-04-15T07:57:40.091Z,8.60
2018-04-15T07:58:45.607Z,11.40
2018-04-15T07:59:51.122Z,9.10
2018-04-15T08:00:56.646Z,10.60
2018-04-15T08:02:02.153Z,9.30
2018-04-15T08:03:07.664Z,10.40
2018-04-15T08:04:13.189Z,10.60
2018-04-15T08:05:18.700Z,10.50
2018-04-15T08:06:24.208Z,8.00
2018-04-15T08:07:29.725Z,8.50
2018-04-15T08:08:35.240Z,9.20
2018-04-15T08:09:40.756Z,11.20
2018-04-15T08:10:46.273Z,7.40
2018-04-15T08:11:51.785Z,7.70
2018-04-15T08:12:57.302Z,7.80
2018-04-15T08:14:02.815Z,6.60
2018-04-15T08:15:08.336Z,6.70
2018-04-15T08:16:13.849Z,7.10
2018-04-15T08:17:19.362Z,6.60
2018-04-15T08:18:24.888Z,8.50
2018-04-15T08:19:30.393Z,6.00
2018-04-15T08:20:35.915Z,5.10
2018-04-15T08:21:41.423Z,4.40
2018-04-15T08:22:46.941Z,4.80
2018-04-15T08:23:52.463Z,4.40
2018-04-15T08:24:57.969Z,3.90
2018-04-15T08:26:03.495Z,5.00
2018-04-15T08:27:09.003Z,4.80
2018-04-15T08:28:14.516Z,6.30
2018-04-15T08:29:20.029Z,6.50
2018-04-15T08:30:25.553Z,5.00
2018-04-15T08:31:31.075Z,4.90
2018-04-15T08:32:36.595Z,3.90
2018-04-15T08:33:42.091Z,5.20
2018-04-15T08:34:47.619Z,26.90
2018-04-15T08:35:53.125Z,10.30
2018-04-15T08:36:58.641Z,5.40
2018-04-15T08:38:04.193Z,8.50
2018-04-15T08:39:09.668Z,10.70
2018-04-15T08:40:15.181Z,5.90
2018-04-15T08:41:20.701Z,13.20
2018-04-15T08:42:26.232Z,6.30
2018-04-15T08:43:31.728Z,3.60
2018-04-15T08:44:37.247Z,6.30
2018-04-15T08:45:42.776Z,3.50
2018-04-15T08:46:48.289Z,1.90
2018-04-15T08:47:53.792Z,3.10
2018-04-15T08:48:59.309Z,2.80
2018-04-15T08:50:04.825Z,2.00
2018-04-15T08:51:10.342Z,2.60
2018-04-15T08:52:15.853Z,3.00
2018-04-15T08:53:21.369Z,2.40
2018-04-15T08:54:26.895Z,2.80
2018-04-15T08:55:32.403Z,2.60
2018-04-15T08:56:37.916Z,3.90
2018-04-15T08:57:43.463Z,3.10
2018-04-15T08:58:48.947Z,2.40
2018-04-15T08:59:54.468Z,2.20
2018-04-15T09:00:59.978Z,3.10
2018-04-15T09:02:05.499Z,2.50
2018-04-15T09:03:11.014Z,2.40
2018-04-15T09:04:16.528Z,2.20
2018-04-15T09:05:22.044Z,3.10
2018-04-15T09:06:27.561Z,2.50
2018-04-15T09:07:33.075Z,5.40
2018-04-15T09:08:38.588Z,2.40
2018-04-15T09:09:44.149Z,2.30
2018-04-15T09:10:49.619Z,2.10
2018-04-15T09:11:55.138Z,3.30
2018-04-15T09:13:00.651Z,2.70
2018-04-15T09:14:06.166Z,2.10
2018-04-15T09:15:11.687Z,2.20
2018-04-15T09:16:17.203Z,7.80
2018-04-15T09:17:22.713Z,2.00
2018-04-15T09:18:28.233Z,7.80
2018-04-15T09:19:33.756Z,2.30
2018-04-15T09:20:39.259Z,2.20
2018-04-15T09:21:44.784Z,2.20
2018-04-15T09:22:50.305Z,2.50
2018-04-15T09:23:55.811Z,1.60
2018-04-15T09:25:01.325Z,2.40
2018-04-15T09:26:06.841Z,3.20
2018-04-15T09:27:12.354Z,2.10
2018-04-15T09:28:17.876Z,2.10
2018-04-15T09:29:23.394Z,3.50
2018-04-15T09:30:28.912Z,2.50
2018-04-15T09:31:34.433Z,1.60
2018-04-15T09:32:39.933Z,1.60
2018-04-15T09:33:45.451Z,1.70
2018-04-15T09:34:50.969Z,1.50
2018-04-15T09:35:56.487Z,2.00
2018-04-15T09:37:01.999Z,1.90
2018-04-15T09:38:07.572Z,1.80
2018-04-15T09:39:13.029Z,1.30
2018-04-15T09:40:18.556Z,2.10
2018-04-15T09:41:24.070Z,1.70
2018-04-15T09:42:29.583Z,1.80
2018-04-15T09:43:35.103Z,2.10
2018-04-15T09:44:40.613Z,2.50
2018-04-15T09:45:46.132Z,1.90
2018-04-15T09:46:51.638Z,1.60
2018-04-15T09:47:57.156Z,1.00
2018-04-15T09:49:02.678Z,1.50
2018-04-15T09:50:08.199Z,1.50
2018-04-15T09:51:13.705Z,1.10
2018-04-15T09:52:19.228Z,1.60
2018-04-15T09:53:24.737Z,2.10
2018-04-15T09:54:30.259Z,1.00
2018-04-15T09:55:35.783Z,2.10
2018-04-15T09:56:41.285Z,2.90
2018-04-15T09:57:46.801Z,2.30
2018-04-15T09:58:52.333Z,1.40
2018-04-15T09:59:57.837Z,2.20
2018-04-15T10:01:03.354Z,2.50
2018-04-15T10:02:08.866Z,1.40
2018-04-15T10:03:14.385Z,1.60
2018-04-15T10:04:19.905Z,1.30
2018-04-15T10:05:25.414Z,0.90
2018-04-15T10:06:30.938Z,1.20
2018-04-15T10:07:36.454Z,1.30
2018-04-15T10:08:41.966Z,2.10
2018-04-15T10:09:47.485Z,1.10
2018-04-15T10:10:53.030Z,1.20
2018-04-15T10:11:58.515Z,1.50
2018-04-15T10:13:04.044Z,2.30
2018-04-15T10:14:09.555Z,1.20
2018-04-15T10:15:15.070Z,2.00
2018-04-15T10:16:20.590Z,1.30
2018-04-15T10:17:26.106Z,1.10
2018-04-15T10:18:31.620Z,0.60
2018-04-15T10:19:37.136Z,1.70
2018-04-15T10:20:42.663Z,3.80
2018-04-15T10:21:48.167Z,2.90
2018-04-15T10:22:53.686Z,0.70
2018-04-15T10:23:59.269Z,1.00
2018-04-15T10:25:04.720Z,1.20
2018-04-15T10:26:10.246Z,1.40
2018-04-15T10:27:15.753Z,0.90
2018-04-15T10:28:21.277Z,1.10
2018-04-15T10:29:26.803Z,1.20
2018-04-15T10:30:32.310Z,2.40
2018-04-15T10:31:37.823Z,1.30
2018-04-15T10:32:43.373Z,1.20
2018-04-15T10:33:48.859Z,1.50
2018-04-15T10:34:54.371Z,1.70
2018-04-15T10:35:59.892Z,2.00
2018-04-15T10:37:05.407Z,1.80
2018-04-15T10:38:10.936Z,1.00
2018-04-15T10:39:16.442Z,2.00
2018-04-15T10:40:21.982Z,1.50
2018-04-15T10:41:27.480Z,1.00
2018-04-15T10:42:32.991Z,1.00
2018-04-15T10:43:38.546Z,1.10
2018-04-15T10:44:44.038Z,1.70
2018-04-15T10:45:49.558Z,2.60
2018-04-15T10:46:55.058Z,3.20
2018-04-15T10:48:00.576Z,1.00
2018-04-15T10:49:06.095Z,1.80
2018-04-15T10:50:11.615Z,2.40
2018-04-15T10:51:17.129Z,1.20
2018-04-15T10:52:22.649Z,1.20
2018-04-15T10:53:28.172Z,1.20
2018-04-15T10:54:33.727Z,1.30
2018-04-15T10:55:39.194Z,1.70
2018-04-15T10:56:44.716Z,1.30
2018-04-15T10:57:50.240Z,1.10
2018-04-15T10:58:55.750Z,1.90
2018-04-15T11:00:01.268Z,1.60
2018-04-15T11:01:06.803Z,1.90
2018-04-15T11:02:12.316Z,1.40
2018-04-15T11:03:17.825Z,3.10
2018-04-15T11:04:23.368Z,1.70
2018-04-15T11:05:28.861Z,1.80
2018-04-15T11:06:34.388Z,1.10
2018-04-15T11:07:39.896Z,0.80
2018-04-15T11:08:45.467Z,0.90
2018-04-15T11:09:50.928Z,1.30
2018-04-15T11:10:56.454Z,0.90
2018-04-15T11:12:01.970Z,2.00
2018-04-15T11:13:07.490Z,1.30
2018-04-15T11:14:13.059Z,1.60
2018-04-15T11:15:18.523Z,1.30
2018-04-15T11:16:24.046Z,0.70
2018-04-15T11:17:29.558Z,1.10
2018-04-15T11:18:35.074Z,2.50
2018-04-15T11:19:40.589Z,0.90
2018-04-15T11:20:46.106Z,1.90
2018-04-15T11:21:51.628Z,1.70
2018-04-15T11:22:57.151Z,1.70
2018-04-15T11:24:02.675Z,1.80
2018-04-15T11:25:08.182Z,2.30
2018-04-15T11:26:13.698Z,2.20
2018-04-15T11:27:19.222Z,1.00
2018-04-15T11:28:24.741Z,1.20
2018-04-15T11:29:30.255Z,1.40
2018-04-15T11:30:35.775Z,1.60
2018-04-15T11:31:41.295Z,1.20
2018-04-15T11:32:46.808Z,1.50
2018-04-15T11:33:52.332Z,1.60
2018-04-15T11:34:57.850Z,1.00
2018-04-15T11:36:03.374Z,2.80
2018-04-15T11:37:08.886Z,0.90
2018-04-15T11:38:14.399Z,1.40
2018-04-15T11:39:19.925Z,1.50
2018-04-15T11:40:25.560Z,1.20
2018-04-15T11:41:30.978Z,1.00
2018-04-15T11:42:36.478Z,1.10
2018-04-15T11:43:41.999Z,1.40
2018-04-15T11:44:47.516Z,1.50
2018-04-15T11:45:53.036Z,1.40
2018-04-15T11:46:58.600Z,1.30
2018-04-15T11:48:04.305Z,1.10
2018-04-15T11:49:09.597Z,2.10
2018-04-15T11:50:15.106Z,1.50
2018-04-15T11:51:20.627Z,3.00
2018-04-15T11:52:26.147Z,1.80
2018-04-15T11:53:31.658Z,1.80
2018-04-15T11:54:37.177Z,2.20
2018-04-15T11:55:42.698Z,1.30
2018-04-15T11:56:48.217Z,1.60
2018-04-15T11:57:53.739Z,1.90
2018-04-15T11:58:59.253Z,1.30
2018-04-15T12:00:04.776Z,1.80
2018-04-15T12:01:10.349Z,1.60
2018-04-15T12:02:15.827Z,2.00
2018-04-15T12:03:21.339Z,2.40
2018-04-15T12:04:26.849Z,2.50
2018-04-15T12:05:32.368Z,1.50
2018-04-15T12:06:37.896Z,1.30
2018-04-15T12:07:43.410Z,2.80
2018-04-15T12:08:48.925Z,1.30
2018-04-15T12:09:54.448Z,1.50
2018-04-15T12:10:59.969Z,1.70
2018-04-15T12:12:05.480Z,3.00
2018-04-15T12:13:11.007Z,1.80
2018-04-15T12:14:16.519Z,1.50
2018-04-15T12:15:22.042Z,1.30
2018-04-15T12:16:27.562Z,1.70
2018-04-15T12:17:33.082Z,3.10
2018-04-15T12:18:38.601Z,5.00
2018-04-15T12:19:44.125Z,1.90
2018-04-15T12:20:49.636Z,1.80
2018-04-15T12:21:55.157Z,2.30
2018-04-15T12:23:00.677Z,3.10
2018-04-15T12:24:06.197Z,2.80
2018-04-15T12:25:11.724Z,3.20
2018-04-15T12:26:17.239Z,1.40
2018-04-15T12:27:22.758Z,1.90
2018-04-15T12:28:28.273Z,3.80
2018-04-15T12:29:33.787Z,1.90
2018-04-15T12:30:39.311Z,2.20
2018-04-15T12:31:44.851Z,2.20
2018-04-15T12:32:50.351Z,2.60
2018-04-15T12:33:55.937Z,2.90
2018-04-15T12:35:01.391Z,2.30
2018-04-15T12:36:06.905Z,2.80
2018-04-15T12:37:12.429Z,2.40
2018-04-15T12:38:17.953Z,2.40
2018-04-15T12:39:23.466Z,2.10
2018-04-15T12:40:28.991Z,2.60
2018-04-15T12:41:34.513Z,2.80
2018-04-15T12:42:40.046Z,2.00
2018-04-15T12:43:45.548Z,1.70
2018-04-15T12:44:51.067Z,6.40
2018-04-15T12:45:56.596Z,2.00
2018-04-15T12:47:02.113Z,2.00
2018-04-15T12:48:07.620Z,1.90
2018-04-15T12:49:13.145Z,2.00
2018-04-15T12:50:18.678Z,10.20
2018-04-15T12:51:24.188Z,1.30
2018-04-15T12:52:29.701Z,3.20
2018-04-15T12:53:35.229Z,3.00
2018-04-15T12:54:40.739Z,19.20
2018-04-15T12:55:46.261Z,19.40
2018-04-15T12:56:51.781Z,4.80
2018-04-15T12:57:57.319Z,7.70
2018-04-15T12:59:02.818Z,3.00
2018-04-15T13:00:08.339Z,7.20
2018-04-15T13:01:13.921Z,7.90
2018-04-15T13:02:19.389Z,2.00
2018-04-15T13:03:24.899Z,3.60
2018-04-15T13:04:30.433Z,12.30
2018-04-15T13:05:35.939Z,3.60
2018-04-15T13:06:41.467Z,3.20
2018-04-15T13:07:46.979Z,13.90
2018-04-15T13:08:52.500Z,9.80
2018-04-15T13:09:58.028Z,7.10
2018-04-15T13:11:03.541Z,33.60
2018-04-15T13:12:09.060Z,5.00
2018-04-15T13:13:14.585Z,1.90
2018-04-15T13:14:20.114Z,2.40
2018-04-15T13:15:25.634Z,3.20
2018-04-15T13:16:31.150Z,2.00
2018-04-15T13:17:36.669Z,4.00
2018-04-15T13:18:42.197Z,1.90
2018-04-15T13:19:47.708Z,2.20
2018-04-15T13:20:53.222Z,2.30
2018-04-15T13:21:58.751Z,2.90
2018-04-15T13:23:04.269Z,2.20
2018-04-15T13:24:09.789Z,2.70
2018-04-15T13:25:15.302Z,3.00
2018-04-15T13:26:20.833Z,2.50
2018-04-15T13:27:26.366Z,2.00
2018-04-15T13:28:31.882Z,3.60
2018-04-15T13:29:37.379Z,1.90
2018-04-15T13:30:42.903Z,2.60
2018-04-15T13:31:48.541Z,2.10
2018-04-15T13:32:53.951Z,1.90
2018-04-15T13:33:59.467Z,2.00
2018-04-15T13:35:04.989Z,2.30
2018-04-15T13:36:10.513Z,1.90
2018-04-15T13:37:16.044Z,2.20
2018-04-15T13:38:21.546Z,2.60
2018-04-15T13:39:27.066Z,3.10
2018-04-15T13:40:32.578Z,2.20
2018-04-15T13:41:38.098Z,2.50
2018-04-15T13:42:43.633Z,2.20
2018-04-15T13:43:49.140Z,2.00
2018-04-15T13:44:54.668Z,2.50
2018-04-15T13:46:00.176Z,2.70
2018-04-15T13:47:05.698Z,6.70
2018-04-15T13:48:11.232Z,2.80
2018-04-15T13:49:16.734Z,2.10
2018-04-15T13:50:22.263Z,1.50
2018-04-15T13:51:27.786Z,1.90
2018-04-15T13:52:33.288Z,1.80
2018-04-15T13:53:38.806Z,3.10
2018-04-15T13:54:44.328Z,1.80
2018-04-15T13:55:49.889Z,3.10
2018-04-15T13:56:55.367Z,2.10
2018-04-15T13:58:00.888Z,2.10
2018-04-15T13:59:06.412Z,2.50
2018-04-15T14:00:11.920Z,1.80
2018-04-15T14:01:17.447Z,1.50
2018-04-15T14:02:22.958Z,1.80
2018-04-15T14:03:28.482Z,1.70
2018-04-15T14:04:33.997Z,3.60
2018-04-15T14:05:39.549Z,2.20
2018-04-15T14:06:45.038Z,3.80
2018-04-15T14:07:50.551Z,2.70
2018-04-15T14:08:56.083Z,1.80
2018-04-15T14:10:01.614Z,4.60
2018-04-15T14:11:07.114Z,2.30